sensor_id;sensor_type;location;lat;lon;timestamp;temperature;humidity
66928;DHT22;59882;45.624;11.698;2024-03-06T00:02:11;12.20;78.20
66928;DHT22;59882;45.624;11.698;2024-03-06T00:04:37;12.20;78.10
66928;DHT22;59882;45.624;11.698;2024-03-06T00:07:03;12.20;77.90
66928;DHT22;59882;45.624;11.698;2024-03-06T00:09:29;12.20;77.60
66928;DHT22;59882;45.624;11.698;2024-03-06T00:11:55;12.20;77.40
66928;DHT22;59882;45.624;11.698;2024-03-06T00:14:21;12.20;77.40
66928;DHT22;59882;45.624;11.698;2024-03-06T00:16:47;12.20;77.30
66928;DHT22;59882;45.624;11.698;2024-03-06T00:19:13;12.20;77.30
66928;DHT22;59882;45.624;11.698;2024-03-06T00:21:39;12.20;77.00
66928;DHT22;59882;45.624;11.698;2024-03-06T00:24:05;12.20;76.90
66928;DHT22;59882;45.624;11.698;2024-03-06T00:26:31;12.20;77.00
66928;DHT22;59882;45.624;11.698;2024-03-06T00:28:56;12.10;76.80
66928;DHT22;59882;45.624;11.698;2024-03-06T00:31:22;12.10;76.90
66928;DHT22;59882;45.624;11.698;2024-03-06T00:33:48;12.10;77.20
66928;DHT22;59882;45.624;11.698;2024-03-06T00:36:13;12.10;77.50
66928;DHT22;59882;45.624;11.698;2024-03-06T00:38:39;12.10;77.30
66928;DHT22;59882;45.624;11.698;2024-03-06T00:41:05;12.10;77.30
66928;DHT22;59882;45.624;11.698;2024-03-06T00:43:30;12.20;77.30
66928;DHT22;59882;45.624;11.698;2024-03-06T00:45:56;12.10;77.40
66928;DHT22;59882;45.624;11.698;2024-03-06T00:48:22;12.10;77.50
66928;DHT22;59882;45.624;11.698;2024-03-06T00:50:47;12.10;77.50
66928;DHT22;59882;45.624;11.698;2024-03-06T00:53:13;12.10;77.70
66928;DHT22;59882;45.624;11.698;2024-03-06T00:55:39;12.10;77.70
66928;DHT22;59882;45.624;11.698;2024-03-06T00:58:05;12.00;77.80
66928;DHT22;59882;45.624;11.698;2024-03-06T01:00:32;12.00;78.00
66928;DHT22;59882;45.624;11.698;2024-03-06T01:02:58;12.00;78.00
66928;DHT22;59882;45.624;11.698;2024-03-06T01:05:23;12.00;78.10
66928;DHT22;59882;45.624;11.698;2024-03-06T01:07:49;11.90;77.80
66928;DHT22;59882;45.624;11.698;2024-03-06T01:10:15;12.00;78.00
66928;DHT22;59882;45.624;11.698;2024-03-06T01:12:41;12.00;78.00
66928;DHT22;59882;45.624;11.698;2024-03-06T01:15:09;11.90;77.60
66928;DHT22;59882;45.624;11.698;2024-03-06T01:17:35;11.90;77.70
66928;DHT22;59882;45.624;11.698;2024-03-06T01:20:01;11.90;77.80
66928;DHT22;59882;45.624;11.698;2024-03-06T01:22:28;11.90;77.80
66928;DHT22;59882;45.624;11.698;2024-03-06T01:24:53;11.90;77.70
66928;DHT22;59882;45.624;11.698;2024-03-06T01:27:19;11.90;77.80
66928;DHT22;59882;45.624;11.698;2024-03-06T01:29:44;11.90;77.80
66928;DHT22;59882;45.624;11.698;2024-03-06T01:32:10;11.90;77.70
66928;DHT22;59882;45.624;11.698;2024-03-06T01:34:36;11.90;77.90
66928;DHT22;59882;45.624;11.698;2024-03-06T01:37:02;11.90;77.80
66928;DHT22;59882;45.624;11.698;2024-03-06T01:39:28;11.90;77.90
66928;DHT22;59882;45.624;11.698;2024-03-06T01:41:54;11.90;77.90
66928;DHT22;59882;45.624;11.698;2024-03-06T01:44:19;11.80;77.90
66928;DHT22;59882;45.624;11.698;2024-03-06T01:46:45;11.80;78.10
66928;DHT22;59882;45.624;11.698;2024-03-06T01:49:13;11.80;78.20
66928;DHT22;59882;45.624;11.698;2024-03-06T01:51:56;11.80;78.10
66928;DHT22;59882;45.624;11.698;2024-03-06T01:54:23;11.80;78.10
66928;DHT22;59882;45.624;11.698;2024-03-06T01:56:50;11.80;78.10
66928;DHT22;59882;45.624;11.698;2024-03-06T01:59:17;11.80;78.20
66928;DHT22;59882;45.624;11.698;2024-03-06T02:01:44;11.80;78.00
66928;DHT22;59882;45.624;11.698;2024-03-06T02:04:11;11.80;78.00
66928;DHT22;59882;45.624;11.698;2024-03-06T02:06:41;11.80;78.00
66928;DHT22;59882;45.624;11.698;2024-03-06T02:09:07;11.70;77.90
66928;DHT22;59882;45.624;11.698;2024-03-06T02:11:33;11.70;78.00
66928;DHT22;59882;45.624;11.698;2024-03-06T02:13:59;11.70;78.00
66928;DHT22;59882;45.624;11.698;2024-03-06T02:16:25;11.70;78.00
66928;DHT22;59882;45.624;11.698;2024-03-06T02:18:52;11.60;78.00
66928;DHT22;59882;45.624;11.698;2024-03-06T02:21:20;11.60;78.00
66928;DHT22;59882;45.624;11.698;2024-03-06T02:23:45;11.60;78.00
66928;DHT22;59882;45.624;11.698;2024-03-06T02:26:11;11.60;78.10
66928;DHT22;59882;45.624;11.698;2024-03-06T02:28:36;11.50;78.20
66928;DHT22;59882;45.624;11.698;2024-03-06T02:31:02;11.50;78.30
66928;DHT22;59882;45.624;11.698;2024-03-06T02:33:29;11.50;78.40
66928;DHT22;59882;45.624;11.698;2024-03-06T02:35:54;11.40;78.50
66928;DHT22;59882;45.624;11.698;2024-03-06T02:38:20;11.50;78.40
66928;DHT22;59882;45.624;11.698;2024-03-06T02:40:46;11.50;78.50
66928;DHT22;59882;45.624;11.698;2024-03-06T02:43:11;11.50;78.60
66928;DHT22;59882;45.624;11.698;2024-03-06T02:45:37;11.40;78.80
66928;DHT22;59882;45.624;11.698;2024-03-06T02:48:03;11.40;78.80
66928;DHT22;59882;45.624;11.698;2024-03-06T02:50:28;11.40;78.90
66928;DHT22;59882;45.624;11.698;2024-03-06T02:52:54;11.40;78.90
66928;DHT22;59882;45.624;11.698;2024-03-06T02:55:22;11.40;79.00
66928;DHT22;59882;45.624;11.698;2024-03-06T02:57:48;11.40;78.90
66928;DHT22;59882;45.624;11.698;2024-03-06T03:00:14;11.40;78.80
66928;DHT22;59882;45.624;11.698;2024-03-06T03:02:41;11.40;78.80
66928;DHT22;59882;45.624;11.698;2024-03-06T03:05:08;11.40;79.00
66928;DHT22;59882;45.624;11.698;2024-03-06T03:07:33;11.40;79.10
66928;DHT22;59882;45.624;11.698;2024-03-06T03:09:59;11.30;79.10
66928;DHT22;59882;45.624;11.698;2024-03-06T03:12:25;11.30;79.20
66928;DHT22;59882;45.624;11.698;2024-03-06T03:14:50;11.30;79.20
66928;DHT22;59882;45.624;11.698;2024-03-06T03:17:20;11.30;79.30
66928;DHT22;59882;45.624;11.698;2024-03-06T03:19:45;11.30;79.30
66928;DHT22;59882;45.624;11.698;2024-03-06T03:22:11;11.30;79.20
66928;DHT22;59882;45.624;11.698;2024-03-06T03:24:37;11.30;79.50
66928;DHT22;59882;45.624;11.698;2024-03-06T03:27:02;11.30;79.40
66928;DHT22;59882;45.624;11.698;2024-03-06T03:29:29;11.30;79.30
66928;DHT22;59882;45.624;11.698;2024-03-06T03:31:55;11.30;79.80
66928;DHT22;59882;45.624;11.698;2024-03-06T03:34:22;11.30;79.80
66928;DHT22;59882;45.624;11.698;2024-03-06T03:36:48;11.30;79.80
66928;DHT22;59882;45.624;11.698;2024-03-06T03:39:14;11.30;79.50
66928;DHT22;59882;45.624;11.698;2024-03-06T03:41:46;11.30;79.70
66928;DHT22;59882;45.624;11.698;2024-03-06T03:44:16;11.30;79.60
66928;DHT22;59882;45.624;11.698;2024-03-06T03:46:42;11.30;79.70
66928;DHT22;59882;45.624;11.698;2024-03-06T03:49:08;11.30;79.80
66928;DHT22;59882;45.624;11.698;2024-03-06T03:51:35;11.20;79.50
66928;DHT22;59882;45.624;11.698;2024-03-06T03:54:01;11.30;79.50
66928;DHT22;59882;45.624;11.698;2024-03-06T03:56:27;11.30;79.50
66928;DHT22;59882;45.624;11.698;2024-03-06T03:58:53;11.30;79.50
66928;DHT22;59882;45.624;11.698;2024-03-06T04:01:18;11.20;79.50
66928;DHT22;59882;45.624;11.698;2024-03-06T04:03:44;11.20;79.70
66928;DHT22;59882;45.624;11.698;2024-03-06T04:06:13;11.20;79.60
66928;DHT22;59882;45.624;11.698;2024-03-06T04:08:38;11.20;79.50
66928;DHT22;59882;45.624;11.698;2024-03-06T04:11:04;11.20;79.40
66928;DHT22;59882;45.624;11.698;2024-03-06T04:13:30;11.10;79.50
66928;DHT22;59882;45.624;11.698;2024-03-06T04:15:55;11.10;79.40
66928;DHT22;59882;45.624;11.698;2024-03-06T04:18:21;11.10;79.40
66928;DHT22;59882;45.624;11.698;2024-03-06T04:20:47;11.10;79.80
66928;DHT22;59882;45.624;11.698;2024-03-06T04:23:12;11.10;79.70
66928;DHT22;59882;45.624;11.698;2024-03-06T04:25:38;11.10;79.80
66928;DHT22;59882;45.624;11.698;2024-03-06T04:28:06;11.00;80.00
66928;DHT22;59882;45.624;11.698;2024-03-06T04:30:35;11.00;80.20
66928;DHT22;59882;45.624;11.698;2024-03-06T04:33:01;10.90;80.40
66928;DHT22;59882;45.624;11.698;2024-03-06T04:35:26;10.90;80.50
66928;DHT22;59882;45.624;11.698;2024-03-06T04:37:52;10.90;80.20
66928;DHT22;59882;45.624;11.698;2024-03-06T04:40:17;10.90;80.20
66928;DHT22;59882;45.624;11.698;2024-03-06T04:42:48;10.90;80.70
66928;DHT22;59882;45.624;11.698;2024-03-06T04:45:15;10.90;80.30
66928;DHT22;59882;45.624;11.698;2024-03-06T04:47:41;10.90;81.00
66928;DHT22;59882;45.624;11.698;2024-03-06T04:50:11;10.90;80.80
66928;DHT22;59882;45.624;11.698;2024-03-06T04:52:38;10.90;80.80
66928;DHT22;59882;45.624;11.698;2024-03-06T04:55:04;10.80;81.00
66928;DHT22;59882;45.624;11.698;2024-03-06T04:57:30;10.80;81.00
66928;DHT22;59882;45.624;11.698;2024-03-06T04:59:56;10.80;81.60
66928;DHT22;59882;45.624;11.698;2024-03-06T05:02:24;10.80;81.30
66928;DHT22;59882;45.624;11.698;2024-03-06T05:04:50;10.90;81.40
66928;DHT22;59882;45.624;11.698;2024-03-06T05:07:16;10.90;81.50
66928;DHT22;59882;45.624;11.698;2024-03-06T05:09:41;10.90;81.50
66928;DHT22;59882;45.624;11.698;2024-03-06T05:12:07;10.90;81.30
66928;DHT22;59882;45.624;11.698;2024-03-06T05:14:33;10.90;81.30
66928;DHT22;59882;45.624;11.698;2024-03-06T05:16:59;10.90;82.00
66928;DHT22;59882;45.624;11.698;2024-03-06T05:19:25;10.90;81.50
66928;DHT22;59882;45.624;11.698;2024-03-06T05:22:00;11.00;81.50
66928;DHT22;59882;45.624;11.698;2024-03-06T05:24:25;11.10;82.30
66928;DHT22;59882;45.624;11.698;2024-03-06T05:26:51;11.10;82.40
66928;DHT22;59882;45.624;11.698;2024-03-06T05:29:16;11.10;82.20
66928;DHT22;59882;45.624;11.698;2024-03-06T05:31:42;11.10;82.10
66928;DHT22;59882;45.624;11.698;2024-03-06T05:34:08;11.10;82.20
66928;DHT22;59882;45.624;11.698;2024-03-06T05:36:33;11.10;82.70
66928;DHT22;59882;45.624;11.698;2024-03-06T05:38:59;11.10;82.90
66928;DHT22;59882;45.624;11.698;2024-03-06T05:41:25;11.10;82.70
66928;DHT22;59882;45.624;11.698;2024-03-06T05:43:50;11.10;82.50
66928;DHT22;59882;45.624;11.698;2024-03-06T05:46:16;11.10;82.70
66928;DHT22;59882;45.624;11.698;2024-03-06T05:48:42;11.20;82.70
66928;DHT22;59882;45.624;11.698;2024-03-06T05:51:08;11.20;82.50
66928;DHT22;59882;45.624;11.698;2024-03-06T05:53:39;11.20;82.70
66928;DHT22;59882;45.624;11.698;2024-03-06T05:56:07;11.10;82.30
66928;DHT22;59882;45.624;11.698;2024-03-06T05:58:33;11.20;82.40
66928;DHT22;59882;45.624;11.698;2024-03-06T06:01:00;11.20;82.30
66928;DHT22;59882;45.624;11.698;2024-03-06T06:03:26;11.20;82.40
66928;DHT22;59882;45.624;11.698;2024-03-06T06:05:54;11.20;82.80
66928;DHT22;59882;45.624;11.698;2024-03-06T06:08:19;11.20;82.80
66928;DHT22;59882;45.624;11.698;2024-03-06T06:10:45;11.20;83.00
66928;DHT22;59882;45.624;11.698;2024-03-06T06:13:11;11.20;82.90
66928;DHT22;59882;45.624;11.698;2024-03-06T06:15:36;11.30;83.00
66928;DHT22;59882;45.624;11.698;2024-03-06T06:18:02;11.30;82.70
66928;DHT22;59882;45.624;11.698;2024-03-06T06:20:27;11.30;82.90
66928;DHT22;59882;45.624;11.698;2024-03-06T06:22:53;11.30;82.60
66928;DHT22;59882;45.624;11.698;2024-03-06T06:25:19;11.30;82.90
66928;DHT22;59882;45.624;11.698;2024-03-06T06:27:44;11.40;82.80
66928;DHT22;59882;45.624;11.698;2024-03-06T06:30:10;11.40;83.00
66928;DHT22;59882;45.624;11.698;2024-03-06T06:32:39;11.40;82.90
66928;DHT22;59882;45.624;11.698;2024-03-06T06:35:06;11.40;82.70
66928;DHT22;59882;45.624;11.698;2024-03-06T06:37:31;11.40;82.50
66928;DHT22;59882;45.624;11.698;2024-03-06T06:39:57;11.50;82.70
66928;DHT22;59882;45.624;11.698;2024-03-06T06:42:24;11.50;82.40
66928;DHT22;59882;45.624;11.698;2024-03-06T06:44:50;11.60;82.80
66928;DHT22;59882;45.624;11.698;2024-03-06T06:47:17;11.60;82.40
66928;DHT22;59882;45.624;11.698;2024-03-06T06:49:42;11.60;82.70
66928;DHT22;59882;45.624;11.698;2024-03-06T06:52:08;11.60;82.60
66928;DHT22;59882;45.624;11.698;2024-03-06T06:54:33;11.70;82.60
66928;DHT22;59882;45.624;11.698;2024-03-06T06:56:59;11.70;82.60
66928;DHT22;59882;45.624;11.698;2024-03-06T06:59:25;11.70;82.70
66928;DHT22;59882;45.624;11.698;2024-03-06T07:01:50;11.70;82.60
66928;DHT22;59882;45.624;11.698;2024-03-06T07:04:16;11.70;82.60
66928;DHT22;59882;45.624;11.698;2024-03-06T07:06:45;11.80;82.50
66928;DHT22;59882;45.624;11.698;2024-03-06T07:09:12;11.80;82.50
66928;DHT22;59882;45.624;11.698;2024-03-06T07:11:37;11.80;82.40
66928;DHT22;59882;45.624;11.698;2024-03-06T07:14:03;11.90;82.30
66928;DHT22;59882;45.624;11.698;2024-03-06T07:16:29;11.90;82.40
66928;DHT22;59882;45.624;11.698;2024-03-06T07:18:54;11.90;82.50
66928;DHT22;59882;45.624;11.698;2024-03-06T07:21:20;11.90;82.10
66928;DHT22;59882;45.624;11.698;2024-03-06T07:23:45;11.90;82.50
66928;DHT22;59882;45.624;11.698;2024-03-06T07:26:11;11.90;82.30
66928;DHT22;59882;45.624;11.698;2024-03-06T07:28:37;12.00;82.70
66928;DHT22;59882;45.624;11.698;2024-03-06T07:31:05;12.10;82.20
66928;DHT22;59882;45.624;11.698;2024-03-06T07:33:31;12.10;82.20
66928;DHT22;59882;45.624;11.698;2024-03-06T07:35:59;12.20;82.00
66928;DHT22;59882;45.624;11.698;2024-03-06T07:38:25;12.30;81.60
66928;DHT22;59882;45.624;11.698;2024-03-06T07:40:50;12.30;81.40
66928;DHT22;59882;45.624;11.698;2024-03-06T07:43:16;12.30;81.10
66928;DHT22;59882;45.624;11.698;2024-03-06T07:45:42;12.30;81.00
66928;DHT22;59882;45.624;11.698;2024-03-06T07:48:07;12.30;80.50
66928;DHT22;59882;45.624;11.698;2024-03-06T07:50:35;12.30;80.40
66928;DHT22;59882;45.624;11.698;2024-03-06T07:53:00;12.30;80.30
66928;DHT22;59882;45.624;11.698;2024-03-06T07:55:27;12.40;80.20
66928;DHT22;59882;45.624;11.698;2024-03-06T07:57:53;12.40;80.00
66928;DHT22;59882;45.624;11.698;2024-03-06T08:00:19;12.40;80.00
66928;DHT22;59882;45.624;11.698;2024-03-06T08:02:45;12.50;79.70
66928;DHT22;59882;45.624;11.698;2024-03-06T08:05:17;12.50;79.30
66928;DHT22;59882;45.624;11.698;2024-03-06T08:07:43;12.50;78.90
66928;DHT22;59882;45.624;11.698;2024-03-06T08:10:11;12.60;78.90
66928;DHT22;59882;45.624;11.698;2024-03-06T08:12:43;12.60;78.90
66928;DHT22;59882;45.624;11.698;2024-03-06T08:15:12;12.70;78.80
66928;DHT22;59882;45.624;11.698;2024-03-06T08:17:42;12.70;78.80
66928;DHT22;59882;45.624;11.698;2024-03-06T08:20:09;12.80;78.30
66928;DHT22;59882;45.624;11.698;2024-03-06T08:22:38;12.80;78.40
66928;DHT22;59882;45.624;11.698;2024-03-06T08:25:08;12.80;78.20
66928;DHT22;59882;45.624;11.698;2024-03-06T08:27:35;12.90;77.30
66928;DHT22;59882;45.624;11.698;2024-03-06T08:30:05;12.90;76.80
66928;DHT22;59882;45.624;11.698;2024-03-06T08:32:32;12.80;77.10
66928;DHT22;59882;45.624;11.698;2024-03-06T08:35:03;12.90;76.60
66928;DHT22;59882;45.624;11.698;2024-03-06T08:37:31;12.90;76.60
66928;DHT22;59882;45.624;11.698;2024-03-06T08:40:01;12.90;76.50
66928;DHT22;59882;45.624;11.698;2024-03-06T08:42:27;13.00;76.50
66928;DHT22;59882;45.624;11.698;2024-03-06T08:44:53;13.10;76.10
66928;DHT22;59882;45.624;11.698;2024-03-06T08:47:19;13.10;76.10
66928;DHT22;59882;45.624;11.698;2024-03-06T08:49:45;13.20;75.70
66928;DHT22;59882;45.624;11.698;2024-03-06T08:52:10;13.20;75.50
66928;DHT22;59882;45.624;11.698;2024-03-06T08:54:36;13.20;75.20
66928;DHT22;59882;45.624;11.698;2024-03-06T08:57:03;13.20;73.90
66928;DHT22;59882;45.624;11.698;2024-03-06T08:59:29;13.20;74.40
66928;DHT22;59882;45.624;11.698;2024-03-06T09:01:55;13.20;73.30
66928;DHT22;59882;45.624;11.698;2024-03-06T09:04:22;13.30;74.30
66928;DHT22;59882;45.624;11.698;2024-03-06T09:06:47;13.30;73.80
66928;DHT22;59882;45.624;11.698;2024-03-06T09:09:14;13.40;73.70
66928;DHT22;59882;45.624;11.698;2024-03-06T09:11:43;13.40;74.30
66928;DHT22;59882;45.624;11.698;2024-03-06T09:14:09;13.40;73.60
66928;DHT22;59882;45.624;11.698;2024-03-06T09:16:37;13.40;73.80
66928;DHT22;59882;45.624;11.698;2024-03-06T09:19:03;13.50;73.40
66928;DHT22;59882;45.624;11.698;2024-03-06T09:21:29;13.50;73.30
66928;DHT22;59882;45.624;11.698;2024-03-06T09:23:54;13.60;73.90
66928;DHT22;59882;45.624;11.698;2024-03-06T09:26:20;13.70;73.60
66928;DHT22;59882;45.624;11.698;2024-03-06T09:28:46;13.80;73.80
66928;DHT22;59882;45.624;11.698;2024-03-06T09:31:11;13.90;73.10
66928;DHT22;59882;45.624;11.698;2024-03-06T09:33:39;13.90;72.50
66928;DHT22;59882;45.624;11.698;2024-03-06T09:36:05;13.90;73.00
66928;DHT22;59882;45.624;11.698;2024-03-06T09:38:31;14.00;73.10
66928;DHT22;59882;45.624;11.698;2024-03-06T09:40:57;14.10;72.70
66928;DHT22;59882;45.624;11.698;2024-03-06T09:43:23;14.20;72.00
66928;DHT22;59882;45.624;11.698;2024-03-06T09:45:50;14.20;71.60
66928;DHT22;59882;45.624;11.698;2024-03-06T09:48:19;14.20;71.30
66928;DHT22;59882;45.624;11.698;2024-03-06T09:50:47;14.30;70.10
66928;DHT22;59882;45.624;11.698;2024-03-06T09:53:16;14.20;70.60
66928;DHT22;59882;45.624;11.698;2024-03-06T09:55:42;14.20;70.30
66928;DHT22;59882;45.624;11.698;2024-03-06T09:58:08;14.20;70.00
66928;DHT22;59882;45.624;11.698;2024-03-06T10:00:35;14.20;69.40
66928;DHT22;59882;45.624;11.698;2024-03-06T10:03:02;14.10;70.30
66928;DHT22;59882;45.624;11.698;2024-03-06T10:05:31;14.10;70.50
66928;DHT22;59882;45.624;11.698;2024-03-06T10:08:00;14.20;70.80
66928;DHT22;59882;45.624;11.698;2024-03-06T10:10:26;14.20;70.20
66928;DHT22;59882;45.624;11.698;2024-03-06T10:12:52;14.20;70.00
66928;DHT22;59882;45.624;11.698;2024-03-06T10:15:18;14.30;70.00
66928;DHT22;59882;45.624;11.698;2024-03-06T10:17:44;14.30;70.00
66928;DHT22;59882;45.624;11.698;2024-03-06T10:20:18;14.30;70.30
66928;DHT22;59882;45.624;11.698;2024-03-06T10:22:51;14.30;70.40
66928;DHT22;59882;45.624;11.698;2024-03-06T10:25:21;14.40;70.40
66928;DHT22;59882;45.624;11.698;2024-03-06T10:30:29;14.40;70.10
66928;DHT22;59882;45.624;11.698;2024-03-06T10:32:54;14.40;70.20
66928;DHT22;59882;45.624;11.698;2024-03-06T10:35:22;14.40;69.50
66928;DHT22;59882;45.624;11.698;2024-03-06T10:37:48;14.40;70.20
66928;DHT22;59882;45.624;11.698;2024-03-06T10:40:15;14.40;70.40
66928;DHT22;59882;45.624;11.698;2024-03-06T10:42:43;14.40;70.40
66928;DHT22;59882;45.624;11.698;2024-03-06T10:45:13;14.30;70.50
66928;DHT22;59882;45.624;11.698;2024-03-06T10:47:41;14.40;71.00
66928;DHT22;59882;45.624;11.698;2024-03-06T10:50:11;14.50;71.30
66928;DHT22;59882;45.624;11.698;2024-03-06T10:52:39;14.70;70.50
66928;DHT22;59882;45.624;11.698;2024-03-06T10:55:05;14.80;70.60
66928;DHT22;59882;45.624;11.698;2024-03-06T10:57:32;14.80;70.20
66928;DHT22;59882;45.624;11.698;2024-03-06T10:59:59;14.80;69.40
66928;DHT22;59882;45.624;11.698;2024-03-06T11:02:27;14.80;69.50
66928;DHT22;59882;45.624;11.698;2024-03-06T11:04:53;14.80;68.30
66928;DHT22;59882;45.624;11.698;2024-03-06T11:07:19;14.70;68.50
66928;DHT22;59882;45.624;11.698;2024-03-06T11:09:45;14.60;68.60
66928;DHT22;59882;45.624;11.698;2024-03-06T11:12:32;14.70;68.60
66928;DHT22;59882;45.624;11.698;2024-03-06T11:14:58;14.80;69.40
66928;DHT22;59882;45.624;11.698;2024-03-06T11:17:27;14.90;69.40
66928;DHT22;59882;45.624;11.698;2024-03-06T11:28:32;15.00;67.70
66928;DHT22;59882;45.624;11.698;2024-03-06T11:31:10;15.10;66.90
66928;DHT22;59882;45.624;11.698;2024-03-06T11:33:52;15.20;66.80
66928;DHT22;59882;45.624;11.698;2024-03-06T11:41:13;15.40;67.40
66928;DHT22;59882;45.624;11.698;2024-03-06T11:43:43;15.40;65.20
66928;DHT22;59882;45.624;11.698;2024-03-06T11:46:10;15.60;65.90
66928;DHT22;59882;45.624;11.698;2024-03-06T11:48:36;15.70;65.20
66928;DHT22;59882;45.624;11.698;2024-03-06T11:51:02;15.80;65.20
66928;DHT22;59882;45.624;11.698;2024-03-06T11:53:30;15.90;65.10
66928;DHT22;59882;45.624;11.698;2024-03-06T11:55:56;15.90;64.40
66928;DHT22;59882;45.624;11.698;2024-03-06T11:58:22;16.00;62.60
66928;DHT22;59882;45.624;11.698;2024-03-06T12:00:48;16.10;63.30
66928;DHT22;59882;45.624;11.698;2024-03-06T12:03:14;16.30;62.10
66928;DHT22;59882;45.624;11.698;2024-03-06T12:05:40;16.40;62.00
66928;DHT22;59882;45.624;11.698;2024-03-06T12:08:07;16.40;61.90
66928;DHT22;59882;45.624;11.698;2024-03-06T12:10:38;16.40;60.40
66928;DHT22;59882;45.624;11.698;2024-03-06T12:13:05;16.50;60.40
66928;DHT22;59882;45.624;11.698;2024-03-06T12:15:31;16.50;60.40
66928;DHT22;59882;45.624;11.698;2024-03-06T12:17:56;16.60;60.50
66928;DHT22;59882;45.624;11.698;2024-03-06T12:20:24;16.60;59.40
66928;DHT22;59882;45.624;11.698;2024-03-06T12:22:52;16.60;58.70
66928;DHT22;59882;45.624;11.698;2024-03-06T12:25:23;16.50;59.60
66928;DHT22;59882;45.624;11.698;2024-03-06T12:27:49;16.70;58.60
66928;DHT22;59882;45.624;11.698;2024-03-06T12:30:19;16.80;57.40
66928;DHT22;59882;45.624;11.698;2024-03-06T12:32:56;16.90;58.00
66928;DHT22;59882;45.624;11.698;2024-03-06T12:35:28;17.20;57.40
66928;DHT22;59882;45.624;11.698;2024-03-06T12:37:54;17.70;57.00
66928;DHT22;59882;45.624;11.698;2024-03-06T12:40:20;18.90;55.40
66928;DHT22;59882;45.624;11.698;2024-03-06T12:42:46;20.20;50.70
66928;DHT22;59882;45.624;11.698;2024-03-06T12:45:12;21.40;47.60
66928;DHT22;59882;45.624;11.698;2024-03-06T12:47:41;22.40;44.60
66928;DHT22;59882;45.624;11.698;2024-03-06T12:50:07;23.40;42.30
66928;DHT22;59882;45.624;11.698;2024-03-06T12:52:36;24.10;43.10
66928;DHT22;59882;45.624;11.698;2024-03-06T12:55:02;24.70;40.00
66928;DHT22;59882;45.624;11.698;2024-03-06T12:57:34;24.50;39.50
66928;DHT22;59882;45.624;11.698;2024-03-06T12:59:59;24.20;41.10
66928;DHT22;59882;45.624;11.698;2024-03-06T13:02:25;24.10;41.20
66928;DHT22;59882;45.624;11.698;2024-03-06T13:04:52;24.10;41.20
66928;DHT22;59882;45.624;11.698;2024-03-06T13:07:18;23.90;39.50
66928;DHT22;59882;45.624;11.698;2024-03-06T13:09:44;24.00;40.70
66928;DHT22;59882;45.624;11.698;2024-03-06T13:12:10;24.30;39.00
66928;DHT22;59882;45.624;11.698;2024-03-06T13:14:36;24.00;40.00
66928;DHT22;59882;45.624;11.698;2024-03-06T13:17:01;23.50;40.20
66928;DHT22;59882;45.624;11.698;2024-03-06T13:19:28;23.10;41.80
66928;DHT22;59882;45.624;11.698;2024-03-06T13:21:54;22.70;42.20
66928;DHT22;59882;45.624;11.698;2024-03-06T13:24:20;22.50;42.40
66928;DHT22;59882;45.624;11.698;2024-03-06T13:26:46;22.10;43.80
66928;DHT22;59882;45.624;11.698;2024-03-06T13:29:13;21.80;44.50
66928;DHT22;59882;45.624;11.698;2024-03-06T13:31:39;22.40;43.60
66928;DHT22;59882;45.624;11.698;2024-03-06T13:34:05;23.60;40.60
66928;DHT22;59882;45.624;11.698;2024-03-06T13:36:30;24.10;39.50
66928;DHT22;59882;45.624;11.698;2024-03-06T13:38:56;24.40;39.40
66928;DHT22;59882;45.624;11.698;2024-03-06T13:41:22;24.80;38.40
66928;DHT22;59882;45.624;11.698;2024-03-06T13:43:48;25.90;38.20
66928;DHT22;59882;45.624;11.698;2024-03-06T13:46:14;27.50;35.00
66928;DHT22;59882;45.624;11.698;2024-03-06T13:48:40;28.70;31.40
66928;DHT22;59882;45.624;11.698;2024-03-06T13:51:06;28.70;32.30
66928;DHT22;59882;45.624;11.698;2024-03-06T13:53:31;27.70;33.10
66928;DHT22;59882;45.624;11.698;2024-03-06T13:55:57;26.70;34.90
66928;DHT22;59882;45.624;11.698;2024-03-06T13:58:23;26.00;35.80
66928;DHT22;59882;45.624;11.698;2024-03-06T14:00:49;25.30;36.50
66928;DHT22;59882;45.624;11.698;2024-03-06T14:03:14;24.60;38.10
66928;DHT22;59882;45.624;11.698;2024-03-06T14:05:40;25.10;37.30
66928;DHT22;59882;45.624;11.698;2024-03-06T14:08:06;26.20;36.60
66928;DHT22;59882;45.624;11.698;2024-03-06T14:10:33;27.40;35.00
66928;DHT22;59882;45.624;11.698;2024-03-06T14:13:01;28.50;33.50
66928;DHT22;59882;45.624;11.698;2024-03-06T14:15:27;29.40;30.70
66928;DHT22;59882;45.624;11.698;2024-03-06T14:17:53;29.90;30.20
66928;DHT22;59882;45.624;11.698;2024-03-06T14:20:20;30.20;28.30
66928;DHT22;59882;45.624;11.698;2024-03-06T14:22:46;30.60;28.30
66928;DHT22;59882;45.624;11.698;2024-03-06T14:25:11;30.90;29.40
66928;DHT22;59882;45.624;11.698;2024-03-06T14:27:37;30.90;27.80
66928;DHT22;59882;45.624;11.698;2024-03-06T14:30:04;30.90;28.70
66928;DHT22;59882;45.624;11.698;2024-03-06T14:32:32;30.80;27.90
66928;DHT22;59882;45.624;11.698;2024-03-06T14:34:58;30.70;28.20
66928;DHT22;59882;45.624;11.698;2024-03-06T14:37:24;30.40;28.90
66928;DHT22;59882;45.624;11.698;2024-03-06T14:39:49;30.00;29.30
66928;DHT22;59882;45.624;11.698;2024-03-06T14:42:17;29.70;29.80
66928;DHT22;59882;45.624;11.698;2024-03-06T14:44:42;29.00;29.90
66928;DHT22;59882;45.624;11.698;2024-03-06T14:47:09;28.40;30.70
66928;DHT22;59882;45.624;11.698;2024-03-06T14:49:35;27.70;31.70
66928;DHT22;59882;45.624;11.698;2024-03-06T14:52:01;27.30;32.00
66928;DHT22;59882;45.624;11.698;2024-03-06T14:54:27;26.80;32.70
66928;DHT22;59882;45.624;11.698;2024-03-06T14:56:53;26.50;32.80
66928;DHT22;59882;45.624;11.698;2024-03-06T14:59:19;26.00;33.50
66928;DHT22;59882;45.624;11.698;2024-03-06T15:01:45;25.30;34.20
66928;DHT22;59882;45.624;11.698;2024-03-06T15:04:12;24.40;35.90
66928;DHT22;59882;45.624;11.698;2024-03-06T15:06:38;23.70;37.00
66928;DHT22;59882;45.624;11.698;2024-03-06T15:09:04;23.00;38.50
66928;DHT22;59882;45.624;11.698;2024-03-06T15:11:30;22.60;39.50
66928;DHT22;59882;45.624;11.698;2024-03-06T15:13:58;22.30;40.30
66928;DHT22;59882;45.624;11.698;2024-03-06T15:16:24;21.90;41.20
66928;DHT22;59882;45.624;11.698;2024-03-06T15:18:50;21.50;41.30
66928;DHT22;59882;45.624;11.698;2024-03-06T15:21:18;21.20;42.40
66928;DHT22;59882;45.624;11.698;2024-03-06T15:23:44;20.90;43.40
66928;DHT22;59882;45.624;11.698;2024-03-06T15:26:09;20.70;44.20
66928;DHT22;59882;45.624;11.698;2024-03-06T15:28:36;20.40;44.60